createdAt,value
2022-10-22T00:01:53.473Z,92.43
2022-10-22T00:04:20.097Z,92.63
2022-10-22T00:06:46.786Z,97.30
2022-10-22T00:09:14.828Z,95.15
2022-10-22T00:11:42.499Z,93.30
2022-10-22T00:14:09.402Z,92.78
2022-10-22T00:16:36.094Z,98.13
2022-10-22T00:19:02.952Z,96.65
2022-10-22T00:21:30.694Z,99.35
2022-10-22T00:23:57.308Z,101.40
2022-10-22T00:26:23.989Z,93.13
2022-10-22T00:28:50.664Z,98.10
2022-10-22T00:31:19.140Z,96.72
2022-10-22T00:33:48.811Z,93.53
2022-10-22T00:36:16.531Z,96.93
2022-10-22T00:38:43.426Z,91.30
2022-10-22T00:41:10.154Z,93.55
2022-10-22T00:44:01.226Z,92.47
2022-10-22T00:46:30.339Z,93.22
2022-10-22T00:48:59.064Z,94.07
2022-10-22T00:51:30.031Z,93.93
2022-10-22T00:54:02.883Z,97.70
2022-10-22T00:56:29.693Z,95.80
2022-10-22T00:58:59.478Z,96.40
2022-10-22T01:01:31.792Z,97.18
2022-10-22T01:03:59.029Z,97.40
2022-10-22T01:06:34.550Z,94.68
2022-10-22T01:09:06.844Z,94.95
2022-10-22T01:11:38.068Z,92.50
2022-10-22T01:14:29.706Z,93.97
2022-10-22T01:17:08.202Z,93.38
2022-10-22T01:19:57.806Z,93.88
2022-10-22T01:22:45.875Z,93.97
2022-10-22T01:25:30.867Z,93.05
2022-10-22T01:28:22.663Z,96.25
2022-10-22T01:30:53.402Z,96.90
2022-10-22T01:33:22.974Z,94.38
2022-10-22T01:35:50.005Z,97.75
2022-10-22T01:38:21.095Z,98.53
2022-10-22T01:40:49.435Z,98.53
2022-10-22T01:43:16.673Z,93.85
2022-10-22T01:45:49.317Z,95.03
2022-10-22T01:48:50.485Z,97.95
2022-10-22T01:51:44.898Z,98.50
2022-10-22T01:54:30.218Z,92.53
2022-10-22T01:57:11.251Z,99.70
2022-10-22T02:00:09.651Z,94.25
2022-10-22T02:02:39.092Z,95.07
2022-10-22T02:05:05.943Z,94.43
2022-10-22T02:07:37.464Z,92.95
2022-10-22T02:10:07.444Z,90.85
2022-10-22T02:12:35.135Z,94.82
2022-10-22T02:15:04.551Z,91.57
2022-10-22T02:17:34.757Z,95.60
2022-10-22T02:20:08.042Z,100.80
2022-10-22T02:22:36.967Z,94.75
2022-10-22T02:25:05.259Z,91.78
2022-10-22T02:27:47.065Z,92.00
2022-10-22T02:30:19.356Z,97.50
2022-10-22T02:33:04.417Z,92.75
2022-10-22T02:35:31.765Z,90.90
2022-10-22T02:37:59.751Z,90.95
2022-10-22T02:40:27.952Z,90.97
2022-10-22T02:42:54.662Z,93.05
2022-10-22T02:45:21.694Z,90.32
2022-10-22T02:47:48.647Z,92.90
2022-10-22T02:50:15.421Z,91.18
2022-10-22T02:52:42.504Z,94.38
2022-10-22T02:55:09.666Z,90.03
2022-10-22T02:57:36.485Z,91.60
2022-10-22T03:00:08.355Z,90.32
2022-10-22T03:02:35.335Z,91.40
2022-10-22T03:05:02.035Z,91.30
2022-10-22T03:07:28.675Z,91.53
2022-10-22T03:09:55.291Z,90.75
2022-10-22T03:12:21.932Z,90.32
2022-10-22T03:14:48.575Z,91.57
2022-10-22T03:17:15.229Z,93.00
2022-10-22T03:19:42.165Z,90.28
2022-10-22T03:22:20.177Z,93.28
2022-10-22T03:24:48.971Z,90.60
2022-10-22T03:27:18.279Z,92.20
2022-10-22T03:29:46.844Z,91.68
2022-10-22T03:32:13.741Z,93.75
2022-10-22T03:34:40.391Z,91.90
2022-10-22T03:37:07.150Z,92.80
2022-10-22T03:39:34.929Z,90.63
2022-10-22T03:42:03.124Z,92.22
2022-10-22T03:44:30.562Z,91.82
2022-10-22T03:47:00.063Z,90.18
2022-10-22T03:49:29.155Z,92.07
2022-10-22T03:51:55.822Z,94.15
2022-10-22T03:54:22.495Z,91.78
2022-10-22T03:56:49.159Z,90.75
2022-10-22T03:59:16.137Z,91.10
2022-10-22T04:01:42.762Z,90.90
2022-10-22T04:04:09.447Z,90.93
2022-10-22T04:06:36.076Z,92.60
2022-10-22T04:09:02.869Z,91.32
2022-10-22T04:11:29.630Z,91.05
2022-10-22T04:13:56.272Z,90.75
2022-10-22T04:16:26.151Z,93.95
2022-10-22T04:18:55.333Z,90.78
2022-10-22T04:21:21.975Z,93.20
2022-10-22T04:23:51.817Z,96.22
2022-10-22T04:26:19.843Z,92.03
2022-10-22T04:28:48.153Z,90.63
2022-10-22T04:31:17.041Z,94.95
2022-10-22T04:33:43.732Z,90.82
2022-10-22T04:36:16.180Z,91.20
2022-10-22T04:38:44.788Z,92.70
2022-10-22T04:41:14.806Z,93.32
2022-10-22T04:43:42.030Z,90.30
2022-10-22T04:46:09.376Z,91.93
2022-10-22T04:48:37.036Z,90.45
2022-10-22T04:51:04.968Z,99.68
2022-10-22T04:53:31.606Z,90.38
2022-10-22T04:56:23.000Z,91.63
2022-10-22T04:58:51.642Z,91.88
2022-10-22T05:01:27.004Z,91.18
2022-10-22T05:03:55.827Z,91.05
2022-10-22T05:06:23.980Z,91.20
2022-10-22T05:08:59.217Z,90.43
2022-10-22T05:11:30.102Z,90.63
2022-10-22T05:13:57.813Z,90.85
2022-10-22T05:16:25.117Z,90.90
2022-10-22T05:18:51.762Z,92.68
2022-10-22T05:21:20.265Z,90.88
2022-10-22T05:23:48.781Z,94.50
2022-10-22T05:26:20.700Z,113.88
2022-10-22T05:28:49.103Z,91.30
2022-10-22T05:31:16.600Z,91.57
2022-10-22T05:33:44.307Z,95.45
2022-10-22T05:36:19.629Z,94.35
2022-10-22T05:38:47.154Z,91.00
2022-10-22T05:41:22.389Z,91.78
2022-10-22T05:43:49.704Z,99.35
2022-10-22T05:46:22.705Z,92.38
2022-10-22T05:48:57.810Z,90.22
2022-10-22T05:51:24.959Z,91.75
2022-10-22T05:53:56.700Z,91.32
2022-10-22T05:56:23.948Z,91.05
2022-10-22T05:58:51.187Z,95.05
2022-10-22T06:01:19.700Z,95.82
2022-10-22T06:03:46.831Z,92.50
2022-10-22T06:06:22.005Z,91.43
2022-10-22T06:08:51.001Z,95.05
2022-10-22T06:11:19.122Z,92.50
2022-10-22T06:13:46.354Z,90.47
2022-10-22T06:16:13.795Z,96.90
2022-10-22T06:18:40.794Z,93.25
2022-10-22T06:21:10.207Z,91.70
2022-10-22T06:23:38.240Z,90.35
2022-10-22T06:26:05.371Z,91.20
2022-10-22T06:28:32.201Z,91.25
2022-10-22T06:31:00.390Z,93.38
2022-10-22T06:33:28.887Z,90.25
2022-10-22T06:35:55.727Z,93.50
2022-10-22T06:38:22.355Z,91.38
2022-10-22T06:40:48.991Z,91.47
2022-10-22T06:43:15.646Z,93.00
2022-10-22T06:45:42.366Z,91.43
2022-10-22T06:48:09.004Z,92.80
2022-10-22T06:50:35.696Z,91.32
2022-10-22T06:53:02.370Z,94.05
2022-10-22T06:55:29.018Z,90.65
2022-10-22T06:57:55.910Z,90.63
2022-10-22T07:00:22.714Z,91.03
2022-10-22T07:02:57.613Z,90.32
2022-10-22T07:05:25.881Z,90.72
2022-10-22T07:07:52.524Z,90.90
2022-10-22T07:10:19.155Z,90.22
2022-10-22T07:12:45.810Z,96.00
2022-10-22T07:15:12.555Z,90.50
2022-10-22T07:20:07.291Z,90.63
2022-10-22T07:22:33.969Z,90.43
2022-10-22T07:25:05.149Z,92.18
2022-10-22T07:27:34.076Z,93.55
2022-10-22T07:30:01.392Z,95.35
2022-10-22T07:32:28.128Z,92.30
2022-10-22T07:34:54.773Z,92.07
2022-10-22T07:37:22.097Z,91.72
2022-10-22T07:39:49.258Z,90.72
2022-10-22T07:42:16.246Z,91.38
2022-10-22T07:44:42.863Z,92.32
2022-10-22T07:47:09.523Z,96.18
2022-10-22T07:49:36.126Z,92.40
2022-10-22T07:52:02.778Z,90.13
2022-10-22T07:54:29.482Z,91.70
2022-10-22T07:56:56.146Z,91.50
2022-10-22T07:59:22.846Z,92.93
2022-10-22T08:01:49.493Z,90.35
2022-10-22T08:04:16.126Z,91.60
2022-10-22T08:06:45.786Z,89.53
2022-10-22T08:09:14.156Z,90.60
2022-10-22T08:11:40.814Z,89.82
2022-10-22T08:14:07.500Z,91.32
2022-10-22T08:16:34.167Z,88.97
2022-10-22T08:19:00.810Z,92.43
2022-10-22T08:21:27.600Z,90.35
2022-10-22T08:23:54.293Z,91.45
2022-10-22T08:26:21.088Z,88.72
2022-10-22T08:28:47.720Z,90.07
2022-10-22T08:31:14.698Z,89.47
2022-10-22T08:33:41.973Z,87.45
2022-10-22T08:36:09.027Z,86.35
2022-10-22T08:38:36.080Z,86.32
2022-10-22T08:41:15.637Z,87.05
2022-10-22T08:44:23.598Z,88.25
2022-10-22T08:47:01.871Z,85.13
2022-10-22T08:49:35.125Z,84.72
2022-10-22T08:52:04.415Z,84.32
2022-10-22T08:54:51.555Z,84.05
2022-10-22T08:57:35.088Z,83.45
2022-10-22T09:00:15.917Z,83.00
2022-10-22T09:02:51.437Z,82.90
2022-10-22T09:05:25.886Z,83.80
2022-10-22T09:07:53.127Z,82.03
2022-10-22T09:10:24.306Z,82.50
2022-10-22T09:12:51.053Z,82.27
2022-10-22T09:15:19.405Z,85.50
2022-10-22T09:18:13.886Z,80.37
2022-10-22T09:20:51.634Z,81.50
2022-10-22T09:23:39.175Z,80.80
2022-10-22T09:26:26.614Z,79.27
2022-10-22T09:28:53.552Z,79.47
2022-10-22T09:31:20.190Z,79.20
2022-10-22T09:33:50.638Z,80.67
2022-10-22T09:36:21.135Z,78.20
2022-10-22T09:38:52.953Z,78.80
2022-10-22T09:41:23.039Z,79.20
2022-10-22T09:43:49.857Z,82.30
2022-10-22T09:46:23.036Z,79.30
2022-10-22T09:49:01.320Z,78.97
2022-10-22T09:51:52.857Z,81.83
2022-10-22T09:54:25.519Z,80.37
2022-10-22T09:56:55.739Z,83.77
2022-10-22T09:59:33.219Z,80.37
2022-10-22T10:02:19.647Z,79.80
2022-10-22T10:04:57.582Z,79.47
2022-10-22T10:07:31.341Z,80.33
2022-10-22T10:09:58.719Z,83.03
2022-10-22T10:12:29.074Z,79.67
2022-10-22T10:15:17.852Z,87.43
2022-10-22T10:17:56.663Z,80.10
2022-10-22T10:20:41.008Z,81.00
2022-10-22T10:23:10.445Z,80.23
2022-10-22T10:26:01.238Z,79.97
2022-10-22T10:29:04.520Z,81.37
2022-10-22T10:31:49.489Z,80.53
2022-10-22T10:34:33.805Z,79.30
2022-10-22T10:37:24.481Z,83.10
2022-10-22T10:40:28.644Z,79.37
2022-10-22T10:43:25.014Z,78.47
2022-10-22T10:46:19.394Z,78.67
2022-10-22T10:48:51.018Z,80.27
2022-10-22T10:51:37.138Z,82.47
2022-10-22T10:54:17.285Z,84.00
2022-10-22T10:56:57.695Z,83.97
2022-10-22T11:00:06.047Z,83.85
2022-10-22T11:02:53.000Z,82.45
2022-10-22T11:05:41.542Z,82.55
2022-10-22T11:08:20.174Z,83.97
2022-10-22T11:10:51.727Z,82.90
2022-10-22T11:13:29.450Z,83.15
2022-10-22T11:16:36.625Z,88.40
2022-10-22T11:19:15.472Z,84.25
2022-10-22T11:22:15.206Z,83.32
2022-10-22T11:24:51.967Z,94.10
2022-10-22T11:27:45.692Z,87.22
2022-10-22T11:30:14.052Z,86.32
2022-10-22T11:32:43.996Z,84.93
2022-10-22T11:35:20.219Z,84.28
2022-10-22T11:37:51.500Z,86.35
2022-10-22T11:40:28.620Z,87.32
2022-10-22T11:43:04.550Z,87.72
2022-10-22T11:45:38.331Z,87.78
2022-10-22T11:48:10.899Z,89.90
2022-10-22T11:50:54.227Z,85.68
2022-10-22T11:53:39.038Z,88.57
2022-10-22T11:56:13.009Z,86.70
2022-10-22T11:58:44.686Z,90.63
2022-10-22T12:01:11.261Z,85.32
2022-10-22T12:03:43.782Z,88.00
2022-10-22T12:06:14.970Z,85.03
2022-10-22T12:08:54.233Z,82.82
2022-10-22T12:11:20.931Z,84.70
2022-10-22T12:14:12.627Z,84.80
2022-10-22T12:16:56.322Z,83.27
2022-10-22T12:19:23.386Z,82.53
2022-10-22T12:21:57.369Z,90.45
2022-10-22T12:24:26.144Z,82.40
2022-10-22T12:26:53.065Z,85.45
2022-10-22T12:29:26.549Z,84.35
2022-10-22T12:31:54.148Z,84.97
2022-10-22T12:34:25.222Z,83.93
2022-10-22T12:36:53.901Z,84.85
2022-10-22T12:39:24.522Z,82.82
2022-10-22T12:41:53.418Z,83.57
2022-10-22T12:44:20.157Z,84.27
2022-10-22T12:46:51.783Z,82.77
2022-10-22T12:49:24.894Z,87.37
2022-10-22T12:51:51.582Z,83.68
2022-10-22T12:54:39.794Z,83.72
2022-10-22T12:57:11.204Z,83.50
2022-10-22T12:59:40.351Z,86.07
2022-10-22T13:02:24.520Z,85.03
2022-10-22T13:05:18.309Z,84.80
2022-10-22T13:07:52.604Z,86.03
2022-10-22T13:10:19.380Z,86.97
2022-10-22T13:12:51.123Z,85.78
2022-10-22T13:15:38.987Z,87.15
2022-10-22T13:18:16.812Z,88.55
2022-10-22T13:21:04.109Z,84.88
2022-10-22T13:23:33.435Z,90.63
2022-10-22T13:26:04.501Z,87.40
2022-10-22T13:28:32.742Z,86.95
2022-10-22T13:31:01.269Z,86.68
2022-10-22T13:33:37.046Z,85.13
2022-10-22T13:36:05.204Z,85.53
2022-10-22T13:38:31.971Z,88.20
2022-10-22T13:40:59.390Z,89.10
2022-10-22T13:43:26.313Z,94.35
2022-10-22T13:45:55.586Z,82.85
2022-10-22T13:48:23.929Z,85.63
2022-10-22T13:50:52.185Z,83.97
2022-10-22T13:53:23.087Z,85.03
2022-10-22T13:55:50.306Z,86.72
2022-10-22T13:58:19.705Z,85.15
2022-10-22T14:00:52.084Z,88.43
2022-10-22T14:03:22.057Z,89.38
2022-10-22T14:05:49.674Z,87.93
2022-10-22T14:08:19.750Z,86.13
2022-10-22T14:10:46.843Z,89.57
2022-10-22T14:13:15.549Z,92.15
2022-10-22T14:15:45.130Z,89.80
2022-10-22T14:18:15.768Z,83.20
2022-10-22T14:20:43.017Z,88.38
2022-10-22T14:25:50.971Z,87.07
2022-10-22T14:28:17.891Z,86.40
2022-10-22T14:30:45.362Z,93.38
2022-10-22T14:33:30.544Z,90.07
2022-10-22T14:35:59.111Z,90.05
2022-10-22T14:38:25.811Z,87.40
2022-10-22T14:40:52.613Z,91.10
2022-10-22T14:43:23.696Z,92.07
2022-10-22T14:45:50.790Z,86.28
2022-10-22T14:50:45.695Z,86.95
2022-10-22T14:53:13.698Z,92.00
2022-10-22T14:55:41.327Z,89.05
2022-10-22T14:58:08.080Z,87.05
2022-10-22T15:00:36.797Z,87.68
2022-10-22T15:03:04.434Z,88.35
2022-10-22T15:05:31.339Z,86.25
2022-10-22T15:07:59.342Z,87.32
2022-10-22T15:10:26.722Z,86.72
2022-10-22T15:12:53.598Z,86.78
2022-10-22T15:15:22.712Z,85.45
2022-10-22T15:17:50.447Z,87.10
2022-10-22T15:20:17.220Z,87.90
2022-10-22T15:22:45.246Z,86.57
2022-10-22T15:25:13.338Z,90.10
2022-10-22T15:27:40.339Z,86.13
2022-10-22T15:30:07.932Z,86.43
2022-10-22T15:32:34.682Z,93.53
2022-10-22T15:35:01.677Z,89.22
2022-10-22T15:37:28.361Z,89.40
2022-10-22T15:39:55.162Z,89.93
2022-10-22T15:42:23.250Z,87.57
2022-10-22T15:44:56.795Z,88.43
2022-10-22T15:47:25.282Z,89.00
2022-10-22T15:49:51.985Z,87.40
2022-10-22T15:52:18.799Z,89.53
2022-10-22T15:54:45.536Z,89.38
2022-10-22T15:57:12.276Z,89.50
2022-10-22T15:59:38.969Z,88.75
2022-10-22T16:02:07.181Z,91.65
2022-10-22T16:04:33.933Z,88.47
2022-10-22T16:07:01.127Z,88.65
2022-10-22T16:09:28.003Z,95.15
2022-10-22T16:11:55.505Z,91.53
2022-10-22T16:14:24.053Z,89.50
2022-10-22T16:16:53.348Z,92.95
2022-10-22T16:19:22.279Z,101.40
2022-10-22T16:21:51.268Z,105.25
2022-10-22T16:24:18.767Z,95.05
2022-10-22T16:26:45.640Z,91.40
2022-10-22T16:29:12.678Z,89.95
2022-10-22T16:31:40.635Z,91.38
2022-10-22T16:34:07.807Z,93.07
2022-10-22T16:36:36.174Z,94.40
2022-10-22T16:39:04.124Z,98.85
2022-10-22T16:41:35.247Z,91.47
2022-10-22T16:44:05.860Z,100.60
2022-10-22T16:46:33.650Z,94.95
2022-10-22T16:49:00.428Z,107.88
2022-10-22T16:51:28.244Z,92.65
2022-10-22T16:53:56.563Z,90.38
2022-10-22T16:56:24.448Z,91.53
2022-10-22T16:58:56.537Z,94.32
2022-10-22T17:01:29.659Z,90.35
2022-10-22T17:03:59.147Z,93.28
2022-10-22T17:06:25.891Z,91.97
2022-10-22T17:08:52.704Z,99.40
2022-10-22T17:11:22.202Z,90.85
2022-10-22T17:13:52.522Z,96.10
2022-10-22T17:16:21.188Z,100.50
2022-10-22T17:18:48.123Z,91.53
2022-10-22T17:21:15.651Z,96.10
2022-10-22T17:23:42.737Z,90.57
2022-10-22T17:26:17.975Z,90.32
2022-10-22T17:28:44.682Z,91.82
2022-10-22T17:31:37.158Z,94.00
2022-10-22T17:34:06.121Z,91.32
2022-10-22T17:36:35.869Z,94.53
2022-10-22T17:39:06.375Z,105.18
2022-10-22T17:41:35.315Z,92.43
2022-10-22T17:44:04.476Z,92.85
2022-10-22T17:46:32.280Z,93.07
2022-10-22T17:49:04.800Z,102.82
2022-10-22T17:51:32.231Z,99.97
2022-10-22T17:53:59.295Z,94.90
2022-10-22T17:56:28.873Z,98.78
2022-10-22T17:58:56.422Z,93.70
2022-10-22T18:01:32.370Z,93.75
2022-10-22T18:04:08.163Z,95.43
2022-10-22T18:06:35.439Z,98.57
2022-10-22T18:09:07.028Z,95.55
2022-10-22T18:11:36.413Z,93.72
2022-10-22T18:14:03.974Z,100.10
2022-10-22T18:16:30.654Z,100.63
2022-10-22T18:18:58.093Z,91.43
2022-10-22T18:21:27.019Z,94.28
2022-10-22T18:23:53.989Z,94.35
2022-10-22T18:26:24.416Z,94.25
2022-10-22T18:28:53.499Z,92.78
2022-10-22T18:31:22.889Z,93.93
2022-10-22T18:33:50.311Z,98.30
2022-10-22T18:36:20.293Z,96.05
2022-10-22T18:39:01.676Z,93.40
2022-10-22T18:41:30.190Z,95.47
2022-10-22T18:43:58.966Z,94.85
2022-10-22T18:46:26.734Z,96.85
2022-10-22T18:48:55.204Z,94.18
2022-10-22T18:51:22.268Z,94.38
2022-10-22T18:54:05.140Z,94.72
2022-10-22T18:56:39.829Z,97.57
2022-10-22T18:59:06.494Z,95.13
2022-10-22T19:01:35.411Z,94.95
2022-10-22T19:04:02.210Z,98.88
2022-10-22T19:06:36.753Z,101.00
2022-10-22T19:09:04.609Z,96.32
2022-10-22T19:11:32.238Z,98.47
2022-10-22T19:13:58.937Z,93.32
2022-10-22T19:16:27.022Z,100.18
2022-10-22T19:18:59.611Z,103.38
2022-10-22T19:21:26.349Z,106.00
2022-10-22T19:23:59.018Z,92.78
2022-10-22T19:26:26.539Z,94.57
2022-10-22T19:28:54.330Z,109.05
2022-10-22T19:31:23.422Z,95.88
2022-10-22T19:33:51.159Z,94.90
2022-10-22T19:36:19.506Z,92.95
2022-10-22T19:38:48.314Z,95.30
2022-10-22T19:41:17.812Z,97.18
2022-10-22T19:43:45.573Z,94.18
2022-10-22T19:46:13.125Z,100.30
2022-10-22T19:48:40.003Z,101.47
2022-10-22T19:51:09.762Z,93.22
2022-10-22T19:53:38.248Z,93.50
2022-10-22T19:56:07.169Z,96.25
2022-10-22T19:58:34.784Z,95.00
2022-10-22T20:01:09.757Z,97.80
2022-10-22T20:03:41.543Z,100.68
2022-10-22T20:06:10.580Z,93.72
2022-10-22T20:08:38.427Z,97.28
2022-10-22T20:11:07.122Z,92.40
2022-10-22T20:13:34.856Z,100.13
2022-10-22T20:16:01.638Z,96.35
2022-10-22T20:18:28.365Z,95.43
2022-10-22T20:20:54.991Z,101.20
2022-10-22T20:23:21.728Z,93.90
2022-10-22T20:25:48.791Z,99.75
2022-10-22T20:28:16.034Z,97.20
2022-10-22T20:30:46.159Z,97.45
2022-10-22T20:33:13.676Z,95.85
2022-10-22T20:35:40.337Z,93.32
2022-10-22T20:38:08.696Z,99.55
2022-10-22T20:40:36.247Z,96.03
2022-10-22T20:43:02.933Z,96.22
2022-10-22T20:45:29.649Z,99.82
2022-10-22T20:48:02.774Z,95.97
2022-10-22T20:50:33.775Z,95.20
2022-10-22T20:53:00.473Z,93.90
2022-10-22T20:55:27.529Z,98.15
2022-10-22T20:57:54.191Z,95.78
2022-10-22T21:00:21.079Z,98.05
2022-10-22T21:02:47.741Z,93.32
2022-10-22T21:05:14.545Z,103.50
2022-10-22T21:07:41.295Z,94.68
2022-10-22T21:10:08.698Z,100.57
2022-10-22T21:12:35.685Z,101.05
2022-10-22T21:15:02.399Z,94.60
2022-10-22T21:17:29.064Z,97.80
2022-10-22T21:19:55.703Z,97.93
2022-10-22T21:22:22.355Z,100.75
2022-10-22T21:24:48.994Z,99.70
2022-10-22T21:27:15.625Z,97.78
2022-10-22T21:29:42.270Z,101.18
2022-10-22T21:32:09.301Z,94.35
2022-10-22T21:34:38.819Z,101.43
2022-10-22T21:37:05.857Z,99.72
2022-10-22T21:39:32.517Z,97.85
2022-10-22T21:41:59.185Z,102.60
2022-10-22T21:44:25.830Z,99.63
2022-10-22T21:46:52.727Z,102.95
2022-10-22T21:49:19.431Z,95.03
2022-10-22T21:51:46.129Z,95.97
2022-10-22T21:54:12.864Z,94.95
2022-10-22T21:56:40.134Z,94.78
2022-10-22T21:59:07.308Z,105.75
2022-10-22T22:01:34.881Z,94.00
2022-10-22T22:04:02.257Z,99.75
2022-10-22T22:06:33.120Z,95.45
2022-10-22T22:09:01.411Z,97.47
2022-10-22T22:11:28.794Z,103.90
2022-10-22T22:13:57.206Z,96.93
2022-10-22T22:16:28.833Z,94.65
2022-10-22T22:18:58.296Z,96.90
2022-10-22T22:21:25.150Z,95.45
2022-10-22T22:23:51.900Z,102.75
2022-10-22T22:26:25.344Z,94.63
2022-10-22T22:28:55.500Z,114.20
2022-10-22T22:31:25.513Z,100.75
2022-10-22T22:33:58.657Z,94.57
2022-10-22T22:36:25.326Z,102.65
2022-10-22T22:38:56.409Z,96.60
2022-10-22T22:41:23.692Z,96.03
2022-10-22T22:43:50.427Z,103.30
2022-10-22T22:46:17.356Z,99.28
2022-10-22T22:48:44.194Z,99.05
2022-10-22T22:51:11.458Z,98.85
2022-10-22T22:53:38.098Z,93.15
2022-10-22T22:56:16.939Z,95.88
2022-10-22T22:58:44.009Z,94.43
2022-10-22T23:01:19.493Z,104.25
2022-10-22T23:03:48.653Z,99.18
2022-10-22T23:06:15.721Z,96.45
2022-10-22T23:08:42.526Z,101.45
2022-10-22T23:11:12.811Z,94.93
2022-10-22T23:13:41.195Z,97.25
2022-10-22T23:16:10.408Z,98.18
2022-10-22T23:18:37.145Z,94.65
2022-10-22T23:21:10.589Z,95.18
2022-10-22T23:23:37.245Z,102.82
2022-10-22T23:26:03.993Z,96.47
2022-10-22T23:28:30.610Z,97.03
2022-10-22T23:30:57.265Z,96.53
2022-10-22T23:33:23.893Z,96.03
2022-10-22T23:35:50.555Z,92.55
2022-10-22T23:38:17.195Z,92.90
2022-10-22T23:40:43.851Z,98.68
2022-10-22T23:43:10.473Z,95.80
2022-10-22T23:45:37.186Z,94.53
2022-10-22T23:48:04.003Z,103.57
2022-10-22T23:50:30.663Z,97.60
2022-10-22T23:52:57.361Z,100.35
2022-10-22T23:55:24.065Z,99.55
2022-10-22T23:57:50.813Z,100.32
